Weather - Helsinki Query any day in the database

Current weather  

Weather data for a selected day (2006-01-01 -2020-10-31)
Enter date:     <-     scroll days         ->
day curves
Low temperature°C -13.023:50
High temperature°C -1.007:20
Low wind chill°C -23.722:20
Average temperature°C -6.7 
High wind speed (10 min) m/s 9.810:20
Low pressurehPa 967.008:20
High pressurehPa 984.023:50
Low R.H% 7217:50
High R.H% 9208:50
High precipitation (1h)mm 2.001:50
Total precipitation of the daymm 8.6 
Day weather data as a table
Date Time Temp
°C
Chill
°C
Pressure
hPA
Wind
m/s
Hum
%
Precip
mm
2015-01-11 23:50:00 -13.0  -22.8  984.0 7.2 78 -
2015-01-11 23:20:00 -13.0  -23.0  984.0 7.6 78 -
2015-01-11 22:50:00 -13.0  -23.0  983.0 7.6 78 -
2015-01-11 22:20:00 -13.0  -23.7  983.0 8.9 78 -
2015-01-11 21:50:00 -13.0  -23.2  982.0 8.0 78 -
2015-01-11 21:20:00 -13.0  -23.2  981.0 8.0 78 -
2015-01-11 20:50:00 -13.0  -23.2  980.0 8.0 78 -
2015-01-11 20:20:00 -13.0  -23.0  980.0 7.6 78 -
2015-01-11 19:50:00 -12.0  -22.4  979.0 8.9 78 -
2015-01-11 19:20:00 -12.0  -21.2  978.0 6.7 78 -
2015-01-11 18:50:00 -12.0  -21.5  978.0 7.2 78 -
2015-01-11 18:20:00 -12.0  -21.9  977.0 8.0 78 -
2015-01-11 17:50:00 -11.0  -20.2  976.0 7.2 72 0.1
2015-01-11 17:20:00 -11.0  -20.4  976.0 7.6 78 -
2015-01-11 16:50:00 -11.0  -21.1  975.0 8.9 78 -
2015-01-11 16:20:00 -10.0  -19.8  975.0 8.9 78 -
2015-01-11 15:50:00 -9.0  -18.0  974.0 8.0 78 -
2015-01-11 15:20:00 -9.0  -18.7  973.0 9.4 78 -
2015-01-11 14:50:00 -9.0  -18.0  973.0 8.0 78 -
2015-01-11 14:20:00 -9.0  -18.0  972.0 8.0 85 -
2015-01-11 13:50:00 -8.0  -16.7  971.0 8.0 78 -
2015-01-11 13:20:00 -8.0  -16.5  971.0 7.6 78 -
2015-01-11 12:50:00 -8.0  -17.2  971.0 8.9 85 0.1
2015-01-11 12:20:00 -7.0  -15.9  970.0 8.9 85 -
2015-01-11 11:50:00 -7.0  -16.1  970.0 9.4 85 -
2015-01-11 11:20:00 -6.0  -14.6  969.0 8.9 85 -
2015-01-11 10:50:00 -6.0  -14.6  969.0 8.9 85 0.4
2015-01-11 10:20:00 -6.0  -14.9  969.0 9.8 85 -
2015-01-11 09:50:00 -5.0  -13.2  968.0 8.9 85 0.2
2015-01-11 09:20:00 -5.0  -13.2  968.0 8.9 85 -
2015-01-11 08:50:00 -4.0  -11.9  968.0 8.9 92 0.1
2015-01-11 08:20:00 -2.0  -9.3  967.0 8.9 92 -
2015-01-11 07:50:00 -2.0  -9.3  967.0 8.9 92 0.3
2015-01-11 07:20:00 -1.0  -7.3  967.0 7.2 92 -
2015-01-11 06:50:00 -1.0  -7.1  967.0 6.7 92 0.7
2015-01-11 06:20:00 -1.0  -7.1  967.0 6.7 92 -
2015-01-11 05:50:00 -1.0  -7.3  967.0 7.2 92 0.5
2015-01-11 05:20:00 -1.0  -7.5  967.0 7.6 92 -
2015-01-11 04:50:00 -1.0  -6.9  967.0 6.3 92 0.6
2015-01-11 04:20:00 -1.0  -7.5  968.0 7.6 92 -
2015-01-11 03:50:00 -1.0  -7.5  968.0 7.6 92 0.7
2015-01-11 03:20:00 -1.0  -7.3  968.0 7.2 92 -
2015-01-11 02:50:00 -1.0  -7.5  968.0 7.6 92 1.4
2015-01-11 02:20:00 -1.0  -7.1  969.0 6.7 92 -
2015-01-11 01:50:00 -1.0  -7.6  969.0 8.0 92 2.0
2015-01-11 01:20:00 -1.0  -8.0  969.0 8.9 92 -
2015-01-11 00:50:00 -1.0  -7.3  970.0 7.2 92 1.5
2015-01-11 00:20:00 -1.0  -7.6  970.0 8.0 92 -
Unit conversions: